createdAt,value
2022-10-12T00:01:33.303Z,12.60
2022-10-12T00:04:09.656Z,12.60
2022-10-12T00:06:54.832Z,12.60
2022-10-12T00:09:32.263Z,12.60
2022-10-12T00:12:10.306Z,12.50
2022-10-12T00:14:42.214Z,12.50
2022-10-12T00:17:19.799Z,12.60
2022-10-12T00:19:48.045Z,12.60
2022-10-12T00:22:17.269Z,12.50
2022-10-12T00:24:50.356Z,12.40
2022-10-12T00:27:26.725Z,12.30
2022-10-12T00:30:00.514Z,12.30
2022-10-12T00:32:32.226Z,12.30
2022-10-12T00:35:05.578Z,12.30
2022-10-12T00:37:37.159Z,12.30
2022-10-12T00:40:09.402Z,12.30
2022-10-12T00:42:49.580Z,12.20
2022-10-12T00:45:46.512Z,12.20
2022-10-12T00:48:32.111Z,12.10
2022-10-12T00:51:03.973Z,12.20
2022-10-12T00:53:40.726Z,12.20
2022-10-12T00:56:18.982Z,12.40
2022-10-12T00:59:00.357Z,12.20
2022-10-12T01:01:33.489Z,12.20
2022-10-12T01:04:02.672Z,12.20
2022-10-12T01:06:41.123Z,12.00
2022-10-12T01:09:11.779Z,12.10
2022-10-12T01:11:54.310Z,12.00
2022-10-12T01:14:40.284Z,12.00
2022-10-12T01:17:41.996Z,12.00
2022-10-12T01:20:35.836Z,12.00
2022-10-12T01:23:52.001Z,12.00
2022-10-12T01:27:06.272Z,12.00
2022-10-12T01:30:11.460Z,11.90
2022-10-12T01:33:15.587Z,12.00
2022-10-12T01:35:55.510Z,12.10
2022-10-12T01:38:51.387Z,12.10
2022-10-12T01:41:31.561Z,12.10
2022-10-12T01:44:13.948Z,12.20
2022-10-12T01:46:50.824Z,12.10
2022-10-12T01:49:44.501Z,12.00
2022-10-12T01:52:50.654Z,12.00
2022-10-12T01:55:35.182Z,12.00
2022-10-12T01:58:44.556Z,12.20
2022-10-12T02:01:23.443Z,12.10
2022-10-12T02:04:04.693Z,11.80
2022-10-12T02:06:49.762Z,11.80
2022-10-12T02:09:35.123Z,11.90
2022-10-12T02:12:16.846Z,11.90
2022-10-12T02:14:50.527Z,12.00
2022-10-12T02:17:26.706Z,12.00
2022-10-12T02:19:59.134Z,12.10
2022-10-12T02:22:39.666Z,12.00
2022-10-12T02:25:14.893Z,12.00
2022-10-12T02:27:51.491Z,12.00
2022-10-12T02:30:28.546Z,12.00
2022-10-12T02:33:10.554Z,11.90
2022-10-12T02:35:51.625Z,11.90
2022-10-12T02:38:33.747Z,11.90
2022-10-12T02:41:25.406Z,12.00
2022-10-12T02:44:07.836Z,11.90
2022-10-12T02:46:43.269Z,11.90
2022-10-12T02:49:22.347Z,11.90
2022-10-12T02:52:01.210Z,11.80
2022-10-12T02:54:43.515Z,11.90
2022-10-12T02:57:13.109Z,11.80
2022-10-12T02:59:45.401Z,11.80
2022-10-12T03:02:23.230Z,11.80
2022-10-12T03:04:58.355Z,11.80
2022-10-12T03:07:27.380Z,11.80
2022-10-12T03:10:03.093Z,11.80
2022-10-12T03:12:34.912Z,11.70
2022-10-12T03:15:09.087Z,11.60
2022-10-12T03:17:40.224Z,11.60
2022-10-12T03:20:17.037Z,11.60
2022-10-12T03:22:55.911Z,11.60
2022-10-12T03:25:41.158Z,11.50
2022-10-12T03:28:17.569Z,11.40
2022-10-12T03:30:49.288Z,11.40
2022-10-12T03:33:20.730Z,11.40
2022-10-12T03:36:01.563Z,11.60
2022-10-12T03:38:46.761Z,11.40
2022-10-12T03:41:19.058Z,11.50
2022-10-12T03:43:49.906Z,11.40
2022-10-12T03:46:18.400Z,11.50
2022-10-12T03:48:56.823Z,11.40
2022-10-12T03:51:28.714Z,11.30
2022-10-12T03:54:01.079Z,11.30
2022-10-12T03:56:35.466Z,11.30
2022-10-12T03:59:13.921Z,11.30
2022-10-12T04:01:44.775Z,11.40
2022-10-12T04:04:16.251Z,11.50
2022-10-12T04:06:46.698Z,11.50
2022-10-12T04:09:16.477Z,11.50
2022-10-12T04:11:56.276Z,11.40
2022-10-12T04:14:27.421Z,11.40
2022-10-12T04:16:57.259Z,11.30
2022-10-12T04:19:25.863Z,11.30
2022-10-12T04:21:57.030Z,11.60
2022-10-12T04:24:26.361Z,11.30
2022-10-12T04:27:02.214Z,11.20
2022-10-12T04:29:35.302Z,11.30
2022-10-12T04:32:12.363Z,11.20
2022-10-12T04:34:43.436Z,11.20
2022-10-12T04:37:16.887Z,11.40
2022-10-12T04:39:47.777Z,11.30
2022-10-12T04:42:26.363Z,11.30
2022-10-12T04:44:57.873Z,11.20
2022-10-12T04:47:28.616Z,11.10
2022-10-12T04:49:59.352Z,11.20
2022-10-12T04:52:32.325Z,11.10
2022-10-12T04:55:11.835Z,11.20
2022-10-12T04:57:53.824Z,11.20
2022-10-12T05:00:23.639Z,11.30
2022-10-12T05:03:02.316Z,11.20
2022-10-12T05:05:36.844Z,11.20
2022-10-12T05:08:06.095Z,11.10
2022-10-12T05:10:34.593Z,11.20
2022-10-12T05:13:10.018Z,11.10
2022-10-12T05:15:40.400Z,11.10
2022-10-12T05:18:11.448Z,11.10
2022-10-12T05:20:41.046Z,11.20
2022-10-12T05:23:13.211Z,11.30
2022-10-12T05:25:43.725Z,11.20
2022-10-12T05:28:16.670Z,11.10
2022-10-12T05:30:48.673Z,11.10
2022-10-12T05:33:20.149Z,11.10
2022-10-12T05:35:58.259Z,11.00
2022-10-12T05:38:28.895Z,11.00
2022-10-12T05:41:05.753Z,11.10
2022-10-12T05:43:40.560Z,11.20
2022-10-12T05:46:16.953Z,11.10
2022-10-12T05:48:52.981Z,11.20
2022-10-12T05:51:45.421Z,11.10
2022-10-12T05:54:23.222Z,11.00
2022-10-12T05:56:54.080Z,11.00
2022-10-12T05:59:27.103Z,11.10
2022-10-12T06:01:58.044Z,11.10
2022-10-12T06:04:30.118Z,11.00
2022-10-12T06:06:59.515Z,11.10
2022-10-12T06:09:32.804Z,11.20
2022-10-12T06:12:04.456Z,11.20
2022-10-12T06:14:37.496Z,11.30
2022-10-12T06:17:09.577Z,11.20
2022-10-12T06:19:43.370Z,11.10
2022-10-12T06:22:21.906Z,11.20
2022-10-12T06:25:25.787Z,11.10
2022-10-12T06:27:56.336Z,11.00
2022-10-12T15:22:24.899Z,16.00
2022-10-12T15:24:55.072Z,16.00
2022-10-12T15:27:23.504Z,16.00
2022-10-12T15:29:51.562Z,16.00
2022-10-12T15:32:20.651Z,16.00
2022-10-12T15:34:49.184Z,16.00
2022-10-12T15:37:17.984Z,16.00
2022-10-12T15:39:47.527Z,16.00
2022-10-12T15:42:15.623Z,16.00
2022-10-12T15:44:43.651Z,16.00
2022-10-12T15:47:12.067Z,15.90
2022-10-12T15:49:40.390Z,16.00
2022-10-12T15:52:11.409Z,15.90
2022-10-12T15:54:39.458Z,16.00
2022-10-12T15:57:10.144Z,16.00
2022-10-12T15:59:38.172Z,16.00
2022-10-12T16:02:11.084Z,16.00
2022-10-12T16:04:39.199Z,15.90
2022-10-12T16:07:07.230Z,15.90
2022-10-12T16:09:35.268Z,15.90
2022-10-12T16:12:23.117Z,15.90
2022-10-12T16:14:51.202Z,15.90
2022-10-12T16:17:19.218Z,15.90
2022-10-12T16:19:47.309Z,15.80
2022-10-12T16:22:15.360Z,15.80
2022-10-12T16:24:43.400Z,15.80
2022-10-12T16:27:11.637Z,15.70
2022-10-12T16:29:41.333Z,15.70
2022-10-12T16:32:09.427Z,15.70
2022-10-12T16:34:37.535Z,15.70
2022-10-12T16:37:05.582Z,15.70
2022-10-12T16:39:33.689Z,15.70
2022-10-12T16:42:01.795Z,15.60
2022-10-12T16:44:29.918Z,15.60
2022-10-12T16:46:59.738Z,15.50
2022-10-12T16:49:28.050Z,15.50
2022-10-12T16:51:56.184Z,15.60
2022-10-12T16:54:25.635Z,15.60
2022-10-12T16:56:53.686Z,15.60
2022-10-12T16:59:21.771Z,15.50
2022-10-12T17:01:49.899Z,15.40
2022-10-12T17:04:19.458Z,15.40
2022-10-12T17:06:48.127Z,15.40
2022-10-12T17:09:16.600Z,15.30
2022-10-12T17:11:44.630Z,15.30
2022-10-12T17:14:16.567Z,15.30
2022-10-12T17:16:50.568Z,15.30
2022-10-12T17:19:22.838Z,15.30
2022-10-12T17:21:52.448Z,15.30
2022-10-12T17:24:23.953Z,15.20
2022-10-12T17:26:52.072Z,15.20
2022-10-12T17:29:21.329Z,15.10
2022-10-12T17:31:50.586Z,15.10
2022-10-12T17:34:22.220Z,15.00
2022-10-12T17:36:51.718Z,15.00
2022-10-12T17:39:19.882Z,15.00
2022-10-12T17:41:48.699Z,15.00
2022-10-12T17:44:17.076Z,15.00
2022-10-12T17:46:46.109Z,14.90
2022-10-12T17:49:24.244Z,14.80
2022-10-12T17:51:54.281Z,14.80
2022-10-12T17:54:25.118Z,14.80
2022-10-12T17:56:53.676Z,14.80
2022-10-12T17:59:22.078Z,14.80
2022-10-12T18:01:51.041Z,14.70
2022-10-12T18:04:19.463Z,14.70
2022-10-12T18:06:47.696Z,14.70
2022-10-12T18:09:17.188Z,14.60
2022-10-12T18:11:45.524Z,14.60
2022-10-12T18:14:14.174Z,14.70
2022-10-12T18:16:42.555Z,14.70
2022-10-12T18:19:11.806Z,14.60
2022-10-12T18:21:40.473Z,14.60
2022-10-12T18:24:16.063Z,14.60
2022-10-12T18:26:47.433Z,14.60
2022-10-12T18:29:18.892Z,14.60
2022-10-12T18:31:47.192Z,14.60
2022-10-12T18:34:15.322Z,14.60
2022-10-12T18:36:43.562Z,14.60
2022-10-12T18:39:11.782Z,14.50
2022-10-12T18:41:39.885Z,14.50
2022-10-12T18:44:10.852Z,14.50
2022-10-12T18:46:39.138Z,14.40
2022-10-12T18:49:10.334Z,14.50
2022-10-12T18:51:41.048Z,14.50
2022-10-12T18:54:11.479Z,14.50
2022-10-12T18:56:40.515Z,14.40
2022-10-12T18:59:11.328Z,14.50
2022-10-12T19:01:47.400Z,14.50
2022-10-12T19:04:15.548Z,14.50
2022-10-12T19:06:44.116Z,14.50
2022-10-12T19:09:14.146Z,14.50
2022-10-12T19:11:42.395Z,14.50
2022-10-12T19:14:16.000Z,14.40
2022-10-12T19:16:45.492Z,14.40
2022-10-12T19:19:20.550Z,14.40
2022-10-12T19:21:49.459Z,14.40
2022-10-12T19:24:18.028Z,14.40
2022-10-12T19:26:46.160Z,14.40
2022-10-12T19:29:15.965Z,14.30
2022-10-12T19:31:46.173Z,14.20
2022-10-12T19:34:15.864Z,14.20
2022-10-12T19:36:44.009Z,14.20
2022-10-12T19:39:21.901Z,14.40
2022-10-12T19:41:51.023Z,14.20
2022-10-12T19:44:20.770Z,14.10
2022-10-12T19:46:49.449Z,14.10
2022-10-12T19:49:18.829Z,14.00
2022-10-12T19:51:47.515Z,14.00
2022-10-12T19:54:16.408Z,14.00
2022-10-12T19:56:44.529Z,14.10
2022-10-12T19:59:12.662Z,14.10
2022-10-12T20:01:42.309Z,14.10
2022-10-12T20:04:11.953Z,14.10
2022-10-12T20:06:40.370Z,14.10
2022-10-12T20:09:11.464Z,14.30
2022-10-12T20:11:39.655Z,14.10
2022-10-12T20:14:08.288Z,14.10
2022-10-12T20:16:54.853Z,14.10
2022-10-12T20:19:23.132Z,14.00
2022-10-12T20:21:51.198Z,13.90
2022-10-12T20:24:57.329Z,13.80
2022-10-12T20:27:25.391Z,13.70
2022-10-12T20:29:53.542Z,13.50
2022-10-12T20:32:22.984Z,13.50
2022-10-12T20:34:52.571Z,13.60
2022-10-12T20:37:21.486Z,13.60
2022-10-12T20:39:53.385Z,13.60
2022-10-12T20:42:22.407Z,13.60
2022-10-12T20:44:50.656Z,13.60
2022-10-12T20:47:19.024Z,13.50
2022-10-12T20:49:48.681Z,13.60
2022-10-12T20:52:17.070Z,13.50
2022-10-12T20:54:45.722Z,13.50
2022-10-12T20:57:13.787Z,13.50
2022-10-12T20:59:45.044Z,13.50
2022-10-12T21:02:13.119Z,13.40
2022-10-12T21:04:41.250Z,13.40
2022-10-12T21:07:14.118Z,13.50
2022-10-12T21:09:42.535Z,13.50
2022-10-12T21:12:10.959Z,13.60
2022-10-12T21:14:39.253Z,13.40
2022-10-12T21:17:07.301Z,13.50
2022-10-12T21:19:35.732Z,13.40
2022-10-12T21:22:03.843Z,13.50
2022-10-12T21:24:33.472Z,13.50
2022-10-12T21:27:01.543Z,13.60
2022-10-12T21:29:29.873Z,13.60
2022-10-12T21:31:58.191Z,13.60
2022-10-12T21:34:26.398Z,13.60
2022-10-12T21:36:54.455Z,13.50
2022-10-12T21:39:22.631Z,13.50
2022-10-12T21:41:52.022Z,13.40
2022-10-12T21:44:20.091Z,13.40
2022-10-12T21:46:48.151Z,13.30
2022-10-12T21:49:16.204Z,13.40
2022-10-12T21:51:44.244Z,13.30
2022-10-12T21:54:12.407Z,13.30
2022-10-12T21:56:40.567Z,13.40
2022-10-12T21:59:11.792Z,13.40
2022-10-12T22:01:41.605Z,13.50
2022-10-12T22:04:24.300Z,13.40
2022-10-12T22:07:19.412Z,13.40
2022-10-12T22:10:43.479Z,13.40
2022-10-12T22:13:21.106Z,13.40
2022-10-12T22:16:01.325Z,13.40
2022-10-12T22:18:29.583Z,13.30
2022-10-12T22:20:58.028Z,13.30
2022-10-12T22:23:26.183Z,13.30
2022-10-12T22:25:54.583Z,13.40
2022-10-12T22:28:22.699Z,13.40
2022-10-12T22:30:52.121Z,13.40
2022-10-12T22:33:20.172Z,13.30
2022-10-12T22:35:54.076Z,13.30
2022-10-12T22:38:22.669Z,13.20
2022-10-12T22:40:57.501Z,13.20
2022-10-12T22:43:25.953Z,13.10
2022-10-12T22:45:56.037Z,13.00
2022-10-12T22:48:25.887Z,12.90
2022-10-12T22:50:55.116Z,12.90
2022-10-12T22:53:24.490Z,13.10
2022-10-12T22:55:58.863Z,13.00
2022-10-12T22:58:27.012Z,12.90
2022-10-12T23:01:03.810Z,12.90
2022-10-12T23:03:33.861Z,12.90
2022-10-12T23:06:07.700Z,12.90
2022-10-12T23:08:36.308Z,13.00
2022-10-12T23:11:05.756Z,13.00
2022-10-12T23:13:35.915Z,13.00
2022-10-12T23:16:07.381Z,13.00
2022-10-12T23:18:36.260Z,13.00
2022-10-12T23:21:06.446Z,13.00
2022-10-12T23:23:35.475Z,13.10
2022-10-12T23:26:06.029Z,13.10
2022-10-12T23:28:34.308Z,12.90
2022-10-12T23:31:05.890Z,13.00
2022-10-12T23:33:34.326Z,13.00
2022-10-12T23:36:04.538Z,12.90
2022-10-12T23:38:35.006Z,13.00
2022-10-12T23:41:03.297Z,13.00
2022-10-12T23:43:31.885Z,13.00
2022-10-12T23:46:02.597Z,12.90
2022-10-12T23:48:32.757Z,12.90
2022-10-12T23:51:00.891Z,12.80
2022-10-12T23:53:29.151Z,13.40
2022-10-12T23:55:57.165Z,12.80
2022-10-12T23:58:25.179Z,12.90
